createdAt,value
2019-03-09T00:01:37.637Z,13.33
2019-03-09T00:06:31.498Z,8.63
2019-03-09T00:11:25.500Z,6.80
2019-03-09T00:16:19.449Z,8.80
2019-03-09T00:21:13.838Z,11.03
2019-03-09T00:26:15.607Z,8.00
2019-03-09T00:31:11.498Z,7.87
2019-03-09T00:36:05.315Z,7.23
2019-03-09T00:40:59.207Z,7.97
2019-03-09T00:45:53.067Z,13.07
2019-03-09T00:50:46.930Z,9.73
2019-03-09T00:55:40.909Z,11.50
2019-03-09T01:00:34.941Z,7.33
2019-03-09T01:05:28.905Z,13.53
2019-03-09T01:10:22.871Z,10.80
2019-03-09T01:15:16.742Z,13.80
2019-03-09T01:20:13.211Z,7.33
2019-03-09T01:25:08.337Z,8.13
2019-03-09T01:30:04.095Z,11.80
2019-03-09T01:34:57.956Z,9.00
2019-03-09T01:39:51.910Z,11.43
2019-03-09T01:44:45.775Z,6.67
2019-03-09T01:49:39.742Z,12.10
2019-03-09T01:54:33.672Z,5.17
2019-03-09T01:59:27.516Z,6.30
2019-03-09T02:04:21.532Z,6.87
2019-03-09T02:09:15.395Z,4.47
2019-03-09T02:14:09.232Z,8.87
2019-03-09T02:19:03.113Z,4.67
2019-03-09T02:23:56.937Z,8.27
2019-03-09T02:28:50.775Z,6.27
2019-03-09T02:33:44.627Z,6.70
2019-03-09T02:38:46.509Z,3.37
2019-03-09T02:43:40.352Z,3.77
2019-03-09T02:48:34.241Z,3.53
2019-03-09T02:53:28.052Z,3.33
2019-03-09T02:58:21.929Z,2.87
2019-03-09T03:03:15.921Z,4.70
2019-03-09T03:08:09.786Z,6.23
2019-03-09T03:13:03.651Z,6.73
2019-03-09T03:17:57.497Z,3.30
2019-03-09T03:22:51.351Z,5.87
2019-03-09T03:27:45.212Z,4.40
2019-03-09T03:32:39.159Z,5.63
2019-03-09T03:37:33.026Z,6.53
2019-03-09T03:42:26.890Z,6.17
2019-03-09T03:47:20.833Z,5.30
2019-03-09T03:52:14.709Z,3.70
2019-03-09T03:57:08.562Z,4.07
2019-03-09T04:02:02.520Z,5.50
2019-03-09T04:06:56.490Z,6.50
2019-03-09T04:11:50.462Z,4.67
2019-03-09T04:16:44.317Z,4.67
2019-03-09T04:21:38.198Z,5.50
2019-03-09T04:26:32.143Z,3.80
2019-03-09T04:31:26.120Z,4.53
2019-03-09T04:36:19.939Z,4.43
2019-03-09T04:41:13.799Z,5.40
2019-03-09T04:46:07.693Z,6.27
2019-03-09T04:51:01.566Z,6.60
2019-03-09T04:55:55.422Z,5.43
2019-03-09T05:00:49.280Z,6.87
2019-03-09T05:05:43.244Z,6.77
2019-03-09T05:10:43.590Z,6.77
2019-03-09T05:15:37.458Z,5.30
2019-03-09T05:20:31.315Z,7.77
2019-03-09T05:25:25.164Z,7.50
2019-03-09T05:30:36.730Z,6.07
2019-03-09T05:35:30.626Z,6.43
2019-03-09T05:40:24.493Z,7.20
2019-03-09T05:45:18.340Z,7.53
2019-03-09T05:50:12.193Z,7.63
2019-03-09T05:55:09.580Z,8.57
2019-03-09T06:00:07.272Z,10.93
2019-03-09T06:05:01.141Z,8.17
2019-03-09T06:09:55.298Z,9.53
2019-03-09T06:14:49.139Z,11.93
2019-03-09T06:19:42.997Z,10.47
2019-03-09T06:24:36.852Z,9.50
2019-03-09T06:29:30.700Z,11.53
2019-03-09T06:34:24.568Z,10.10
2019-03-09T06:39:18.428Z,10.47
2019-03-09T06:44:12.297Z,10.90
2019-03-09T06:49:06.147Z,9.43
2019-03-09T06:54:00.016Z,10.77
2019-03-09T06:58:53.890Z,8.23
2019-03-09T07:03:47.871Z,10.47
2019-03-09T07:08:41.832Z,7.93
2019-03-09T07:13:35.688Z,10.63
2019-03-09T07:18:30.656Z,10.00
2019-03-09T07:23:24.702Z,8.90
2019-03-09T07:28:18.557Z,9.63
2019-03-09T07:33:12.422Z,12.53
2019-03-09T07:38:06.397Z,9.17
2019-03-09T07:43:00.374Z,9.17
2019-03-09T07:47:54.336Z,9.87
2019-03-09T07:52:48.199Z,8.93
2019-03-09T07:57:42.170Z,10.83
2019-03-09T08:02:36.049Z,10.13
2019-03-09T08:07:29.926Z,7.93
2019-03-09T08:12:24.267Z,13.20
2019-03-09T08:17:18.378Z,9.73
2019-03-09T08:22:12.235Z,10.23
2019-03-09T08:27:06.116Z,11.23
2019-03-09T08:31:59.971Z,9.10
2019-03-09T08:36:53.942Z,10.53
2019-03-09T08:41:47.911Z,10.63
2019-03-09T08:46:41.802Z,9.73
2019-03-09T08:51:35.783Z,6.80
2019-03-09T08:56:29.868Z,10.77
2019-03-09T09:01:23.806Z,8.53
2019-03-09T09:06:17.669Z,10.63
2019-03-09T09:11:11.602Z,9.73
2019-03-09T09:16:05.455Z,11.17
2019-03-09T09:20:59.324Z,8.73
2019-03-09T09:25:53.305Z,9.13
2019-03-09T09:30:47.200Z,9.53
2019-03-09T09:35:41.075Z,8.93
2019-03-09T09:40:35.032Z,10.40
2019-03-09T09:45:29.090Z,10.73
2019-03-09T09:50:23.151Z,7.87
2019-03-09T09:55:18.283Z,5.83
2019-03-09T10:00:17.937Z,9.90
2019-03-09T10:05:11.946Z,8.80
2019-03-09T10:10:09.435Z,6.07
2019-03-09T10:15:07.138Z,6.23
2019-03-09T10:20:01.009Z,15.03
2019-03-09T10:24:55.003Z,8.50
2019-03-09T10:29:48.965Z,9.13
2019-03-09T10:34:42.845Z,9.27
2019-03-09T10:39:36.724Z,10.63
2019-03-09T10:44:30.759Z,7.07
2019-03-09T10:49:24.612Z,14.03
2019-03-09T10:54:18.502Z,6.03
2019-03-09T10:59:12.369Z,10.23
2019-03-09T11:04:06.486Z,6.77
2019-03-09T11:09:00.451Z,4.87
2019-03-09T11:13:54.440Z,6.13
2019-03-09T11:18:48.288Z,7.27
2019-03-09T11:23:42.530Z,10.07
2019-03-09T11:28:36.805Z,5.33
2019-03-09T11:33:30.739Z,11.20
2019-03-09T11:38:24.625Z,7.00
2019-03-09T11:43:18.568Z,3.93
2019-03-09T11:48:12.540Z,5.07
2019-03-09T11:53:06.435Z,4.58
2019-03-09T11:58:00.432Z,2.77
2019-03-09T12:02:54.453Z,5.08
2019-03-09T12:07:48.424Z,3.30
2019-03-09T12:12:42.417Z,3.87
2019-03-09T12:17:36.285Z,4.40
2019-03-09T12:22:30.445Z,2.10
2019-03-09T12:27:24.342Z,3.17
2019-03-09T12:32:18.235Z,3.90
2019-03-09T12:37:12.251Z,4.40
2019-03-09T12:42:06.237Z,3.55
2019-03-09T12:47:03.150Z,4.25
2019-03-09T12:51:59.057Z,6.20
2019-03-09T12:56:52.941Z,5.33
2019-03-09T13:01:46.991Z,6.12
2019-03-09T13:06:40.980Z,5.42
2019-03-09T13:11:34.924Z,6.58
2019-03-09T13:16:29.241Z,4.43
2019-03-09T13:21:23.073Z,7.22
2019-03-09T13:26:17.083Z,7.97
2019-03-09T13:31:10.963Z,6.67
2019-03-09T13:36:05.950Z,9.10
2019-03-09T13:41:00.048Z,14.80
2019-03-09T13:45:53.922Z,13.03
2019-03-09T13:50:47.897Z,26.77
2019-03-09T13:55:41.827Z,13.97
2019-03-09T14:00:40.540Z,15.40
2019-03-09T14:05:31.524Z,11.93
2019-03-09T14:10:25.449Z,12.60
2019-03-09T14:15:19.406Z,19.60
2019-03-09T14:20:15.229Z,15.87
2019-03-09T14:25:11.014Z,16.40
2019-03-09T14:30:15.745Z,16.87
2019-03-09T14:35:09.752Z,11.07
2019-03-09T14:40:06.330Z,14.03
2019-03-09T14:45:00.264Z,19.00
2019-03-09T14:49:54.268Z,18.35
2019-03-09T14:54:48.280Z,23.27
2019-03-09T14:59:42.328Z,22.07
2019-03-09T15:04:36.352Z,15.28
2019-03-09T15:09:30.276Z,18.07
2019-03-09T15:14:24.250Z,18.75
2019-03-09T15:19:18.194Z,9.28
2019-03-09T15:24:12.102Z,12.58
2019-03-09T15:29:05.980Z,15.13
2019-03-09T15:33:59.942Z,14.30
2019-03-09T15:38:53.856Z,12.88
2019-03-09T15:43:47.846Z,18.12
2019-03-09T15:48:41.862Z,8.43
2019-03-09T15:53:35.821Z,22.23
2019-03-09T15:58:29.764Z,19.30
2019-03-09T16:03:23.768Z,22.37
2019-03-09T16:08:17.651Z,23.93
2019-03-09T16:13:11.666Z,12.77
2019-03-09T16:18:05.518Z,13.37
2019-03-09T16:22:59.542Z,19.17
2019-03-09T16:33:49.858Z,20.47
2019-03-09T16:38:43.756Z,17.43
2019-03-09T16:43:37.626Z,14.43
2019-03-09T16:48:31.489Z,9.73
2019-03-09T16:53:25.477Z,7.77
2019-03-09T16:58:19.403Z,6.10
2019-03-09T17:03:13.398Z,10.73
2019-03-09T17:08:07.442Z,6.97
2019-03-09T17:13:01.448Z,5.80
2019-03-09T17:17:55.666Z,6.77
2019-03-09T17:22:49.751Z,4.97
2019-03-09T17:27:43.639Z,10.33
2019-03-09T17:32:37.614Z,4.17
2019-03-09T17:37:31.505Z,9.63
2019-03-09T17:42:25.377Z,7.77
2019-03-09T17:47:19.351Z,7.77
2019-03-09T17:52:13.371Z,11.03
2019-03-09T17:57:07.360Z,9.57
2019-03-09T18:02:01.365Z,14.10
2019-03-09T18:06:55.295Z,10.43
2019-03-09T18:11:49.168Z,14.23
2019-03-09T18:16:52.300Z,10.83
2019-03-09T18:21:38.851Z,16.97
2019-03-09T18:26:32.837Z,10.60
2019-03-09T18:31:26.842Z,13.53
2019-03-09T18:36:20.716Z,16.63
2019-03-09T18:41:14.718Z,10.43
2019-03-09T18:46:08.604Z,10.87
2019-03-09T18:51:02.613Z,21.30
2019-03-09T18:55:59.428Z,15.57
2019-03-09T19:00:52.228Z,10.93
2019-03-09T19:05:46.137Z,14.07
2019-03-09T19:10:39.989Z,9.27
2019-03-09T19:15:33.896Z,21.03
2019-03-09T19:20:27.860Z,17.97
2019-03-09T19:25:21.898Z,16.13
2019-03-09T19:30:21.124Z,11.60
2019-03-09T19:35:15.205Z,20.27
2019-03-09T19:40:17.491Z,14.50
2019-03-09T19:45:14.100Z,12.57
2019-03-09T19:50:18.512Z,17.33
2019-03-09T19:55:12.828Z,15.17
2019-03-09T20:00:10.290Z,17.23
2019-03-09T20:05:07.461Z,23.03
2019-03-09T20:10:01.807Z,18.90
2019-03-09T20:14:55.668Z,15.97
2019-03-09T20:19:49.646Z,16.50
2019-03-09T20:24:43.543Z,12.20
2019-03-09T20:29:37.443Z,15.97
2019-03-09T20:34:31.294Z,11.47
2019-03-09T20:39:25.310Z,14.03
2019-03-09T20:44:19.287Z,12.90
2019-03-09T20:49:13.277Z,11.87
2019-03-09T20:54:07.134Z,10.13
2019-03-09T20:59:00.986Z,7.83
2019-03-09T21:03:54.986Z,6.83
2019-03-09T21:08:48.951Z,5.77
2019-03-09T21:13:42.908Z,12.23
2019-03-09T21:18:37.022Z,9.43
2019-03-09T21:23:30.988Z,5.27
2019-03-09T21:28:24.840Z,8.73
2019-03-09T21:33:18.738Z,9.27
2019-03-09T21:38:12.635Z,11.93
2019-03-09T21:43:06.529Z,7.40
2019-03-09T21:48:00.369Z,4.87
2019-03-09T21:52:54.286Z,9.60
2019-03-09T21:57:48.205Z,14.47
2019-03-09T22:02:42.226Z,15.50
2019-03-09T22:07:36.160Z,10.50
2019-03-09T22:12:30.140Z,14.17
2019-03-09T22:17:24.028Z,14.93
2019-03-09T22:22:17.904Z,16.10
2019-03-09T22:27:11.776Z,12.60
2019-03-09T22:32:05.765Z,12.27
2019-03-09T22:36:59.653Z,14.27
2019-03-09T22:41:53.505Z,13.27
2019-03-09T22:46:47.459Z,23.03
2019-03-09T22:51:41.338Z,20.10
2019-03-09T22:56:35.374Z,27.37
2019-03-09T23:01:30.242Z,24.03
2019-03-09T23:06:24.250Z,23.67
2019-03-09T23:11:18.110Z,21.47
2019-03-09T23:16:12.028Z,30.43
2019-03-09T23:21:05.995Z,32.77
2019-03-09T23:25:59.854Z,33.83
2019-03-09T23:30:54.576Z,38.53
2019-03-09T23:35:48.890Z,38.57
2019-03-09T23:40:42.872Z,38.70
2019-03-09T23:45:37.020Z,33.33
2019-03-09T23:50:31.780Z,39.07
2019-03-09T23:55:25.974Z,35.17
